Huvudsida
METAR-TAF:

METAR-TAF

Flygplatser :

Vamdrup

Kolding, Danmark

latitud: 55-26N, longitud: 009-20E, höjd: 44 m

Aktuellt väderrapport

Denna rapport gjordes för 17 minuter sedan, klockan 14:50 UTC
Vind 22 kt från ost/sydost i byarna ända upp till 32 kt
Temperatur 17°C
Fuktighet 32%
Tryck 1010 hPa
Sikt 10 km eller mer
Inga moln under 1 500 m eller inga cumulonimbus

METAR: EKVD 231450Z 11022G32KT CAVOK 17/M00 Q1010

Tid: 17:07 (15:07 UTC)

Väderprognos

Denna rapport gjordes för 3 timmar och 8 minuter sedan, klockan 11:59 UTC
Prognos gäller från 23 kl. 12 UTC till 23 kl. 16 UTC
Vind 25 kt från ost/sydost i byarna ända upp till 38 kt
Sikt 10 km eller mer
Inga moln under 1 500 m eller inga cumulonimbus
Temporärt
från 23 kl. 12 UTC till 23 kl. 16 UTC
Vind 22 kt från ost/sydost

TAF: EKVD 231159Z 2312/2316 11025G38KT CAVOK TEMPO 2312/2316 11022KT

Aktuella väderrapporter och prognoser från 4000 flygplatser (METAR- och TAF-rapporter).

De tillgängliga stationerna syns som gula och röda prickar på kartan.

För musen över prickarna för att se namnen på stationerna.

Klicka sedan för att få väderrapporter och prognoser.

För att ändra kartan: Klicka på de gröna knapparna med ett svart kors på för att zooma in; den gröna knappen med ett streck på för att zooma ut; eller på de gröna pilarna för angränsande kartor.


METAR-TAF: